sensor_id;sensor_type;location;lat;lon;timestamp;P1;durP1;ratioP1;P2;durP2;ratioP2
21424;SDS011;10873;51.132;16.848;2022-10-16T00:00:56;11.18;;;8.85;;
21424;SDS011;10873;51.132;16.848;2022-10-16T00:03:33;9.73;;;8.52;;
21424;SDS011;10873;51.132;16.848;2022-10-16T00:06:00;10.00;;;8.73;;
21424;SDS011;10873;51.132;16.848;2022-10-16T00:08:27;10.23;;;8.88;;
21424;SDS011;10873;51.132;16.848;2022-10-16T00:10:58;10.63;;;8.65;;
21424;SDS011;10873;51.132;16.848;2022-10-16T00:13:24;10.68;;;9.00;;
21424;SDS011;10873;51.132;16.848;2022-10-16T00:15:52;9.77;;;8.60;;
21424;SDS011;10873;51.132;16.848;2022-10-16T00:18:21;9.60;;;8.60;;
21424;SDS011;10873;51.132;16.848;2022-10-16T00:20:47;8.80;;;7.90;;
21424;SDS011;10873;51.132;16.848;2022-10-16T00:23:13;9.40;;;8.40;;
21424;SDS011;10873;51.132;16.848;2022-10-16T00:25:41;9.50;;;8.32;;
21424;SDS011;10873;51.132;16.848;2022-10-16T00:28:07;10.13;;;7.75;;
21424;SDS011;10873;51.132;16.848;2022-10-16T00:30:33;9.35;;;7.63;;
21424;SDS011;10873;51.132;16.848;2022-10-16T00:33:02;8.88;;;7.97;;
21424;SDS011;10873;51.132;16.848;2022-10-16T00:35:28;8.80;;;7.78;;
21424;SDS011;10873;51.132;16.848;2022-10-16T00:37:55;9.88;;;8.38;;
21424;SDS011;10873;51.132;16.848;2022-10-16T00:40:22;9.82;;;8.27;;
21424;SDS011;10873;51.132;16.848;2022-10-16T00:42:49;9.20;;;8.20;;
21424;SDS011;10873;51.132;16.848;2022-10-16T00:45:15;9.30;;;8.18;;
21424;SDS011;10873;51.132;16.848;2022-10-16T00:47:42;8.95;;;8.00;;
21424;SDS011;10873;51.132;16.848;2022-10-16T00:50:13;8.73;;;7.80;;
21424;SDS011;10873;51.132;16.848;2022-10-16T00:52:44;8.55;;;7.65;;
21424;SDS011;10873;51.132;16.848;2022-10-16T00:55:14;12.05;;;7.68;;
21424;SDS011;10873;51.132;16.848;2022-10-16T00:57:40;9.20;;;7.53;;
21424;SDS011;10873;51.132;16.848;2022-10-16T01:00:10;8.95;;;7.43;;
21424;SDS011;10873;51.132;16.848;2022-10-16T01:02:38;9.85;;;8.07;;
21424;SDS011;10873;51.132;16.848;2022-10-16T01:05:04;8.52;;;7.63;;
21424;SDS011;10873;51.132;16.848;2022-10-16T01:07:35;8.25;;;7.38;;
21424;SDS011;10873;51.132;16.848;2022-10-16T01:10:11;9.25;;;7.18;;
21424;SDS011;10873;51.132;16.848;2022-10-16T01:12:48;9.20;;;7.00;;
21424;SDS011;10873;51.132;16.848;2022-10-16T01:15:24;7.38;;;6.65;;
21424;SDS011;10873;51.132;16.848;2022-10-16T01:17:53;7.50;;;6.70;;
21424;SDS011;10873;51.132;16.848;2022-10-16T01:20:26;8.40;;;6.30;;
21424;SDS011;10873;51.132;16.848;2022-10-16T01:23:02;8.45;;;7.30;;
21424;SDS011;10873;51.132;16.848;2022-10-16T01:25:49;8.32;;;7.22;;
21424;SDS011;10873;51.132;16.848;2022-10-16T01:28:25;7.47;;;6.68;;
21424;SDS011;10873;51.132;16.848;2022-10-16T01:30:58;7.40;;;6.70;;
21424;SDS011;10873;51.132;16.848;2022-10-16T01:33:27;8.60;;;7.25;;
21424;SDS011;10873;51.132;16.848;2022-10-16T01:35:59;7.43;;;6.68;;
21424;SDS011;10873;51.132;16.848;2022-10-16T01:38:29;7.50;;;6.55;;
21424;SDS011;10873;51.132;16.848;2022-10-16T01:41:00;8.25;;;6.28;;
21424;SDS011;10873;51.132;16.848;2022-10-16T01:43:31;8.07;;;6.22;;
21424;SDS011;10873;51.132;16.848;2022-10-16T01:46:02;7.25;;;6.55;;
21424;SDS011;10873;51.132;16.848;2022-10-16T01:48:28;6.85;;;5.95;;
21424;SDS011;10873;51.132;16.848;2022-10-16T01:50:58;6.95;;;6.25;;
21424;SDS011;10873;51.132;16.848;2022-10-16T01:53:27;8.10;;;6.63;;
21424;SDS011;10873;51.132;16.848;2022-10-16T01:55:55;6.90;;;6.20;;
21424;SDS011;10873;51.132;16.848;2022-10-16T01:58:23;7.60;;;6.65;;
21424;SDS011;10873;51.132;16.848;2022-10-16T02:00:52;6.80;;;6.10;;
21424;SDS011;10873;51.132;16.848;2022-10-16T02:03:20;6.40;;;5.80;;
21424;SDS011;10873;51.132;16.848;2022-10-16T02:05:47;6.78;;;6.07;;
21424;SDS011;10873;51.132;16.848;2022-10-16T02:08:16;7.70;;;6.38;;
21424;SDS011;10873;51.132;16.848;2022-10-16T02:10:43;6.97;;;5.75;;
21424;SDS011;10873;51.132;16.848;2022-10-16T02:13:10;8.15;;;6.22;;
21424;SDS011;10873;51.132;16.848;2022-10-16T02:15:39;7.18;;;6.40;;
21424;SDS011;10873;51.132;16.848;2022-10-16T02:18:06;8.63;;;6.05;;
21424;SDS011;10873;51.132;16.848;2022-10-16T02:20:37;7.43;;;6.07;;
21424;SDS011;10873;51.132;16.848;2022-10-16T02:23:17;6.40;;;5.50;;
21424;SDS011;10873;51.132;16.848;2022-10-16T02:25:46;6.85;;;6.10;;
21424;SDS011;10873;51.132;16.848;2022-10-16T02:28:15;6.25;;;5.55;;
21424;SDS011;10873;51.132;16.848;2022-10-16T02:30:45;7.80;;;6.15;;
21424;SDS011;10873;51.132;16.848;2022-10-16T02:33:17;6.97;;;6.03;;
21424;SDS011;10873;51.132;16.848;2022-10-16T02:35:46;7.78;;;5.90;;
21424;SDS011;10873;51.132;16.848;2022-10-16T02:38:16;6.85;;;6.15;;
21424;SDS011;10873;51.132;16.848;2022-10-16T02:40:43;7.05;;;6.35;;
21424;SDS011;10873;51.132;16.848;2022-10-16T02:43:10;8.13;;;5.60;;
21424;SDS011;10873;51.132;16.848;2022-10-16T02:45:37;8.23;;;6.10;;
21424;SDS011;10873;51.132;16.848;2022-10-16T02:48:03;7.45;;;6.22;;
21424;SDS011;10873;51.132;16.848;2022-10-16T02:50:31;6.70;;;5.50;;
21424;SDS011;10873;51.132;16.848;2022-10-16T02:52:57;7.05;;;6.05;;
21424;SDS011;10873;51.132;16.848;2022-10-16T02:55:24;9.35;;;6.38;;
21424;SDS011;10873;51.132;16.848;2022-10-16T02:57:50;7.82;;;6.30;;
21424;SDS011;10873;51.132;16.848;2022-10-16T03:00:16;6.68;;;6.05;;
21424;SDS011;10873;51.132;16.848;2022-10-16T03:02:43;6.45;;;5.57;;
21424;SDS011;10873;51.132;16.848;2022-10-16T03:05:09;7.00;;;6.10;;
21424;SDS011;10873;51.132;16.848;2022-10-16T03:07:37;8.30;;;6.78;;
21424;SDS011;10873;51.132;16.848;2022-10-16T03:10:03;8.13;;;6.20;;
21424;SDS011;10873;51.132;16.848;2022-10-16T03:12:30;6.47;;;5.75;;
21424;SDS011;10873;51.132;16.848;2022-10-16T03:14:56;6.15;;;5.55;;
21424;SDS011;10873;51.132;16.848;2022-10-16T03:17:23;6.68;;;5.97;;
21424;SDS011;10873;51.132;16.848;2022-10-16T03:19:49;6.38;;;5.65;;
21424;SDS011;10873;51.132;16.848;2022-10-16T03:22:16;6.80;;;6.05;;
21424;SDS011;10873;51.132;16.848;2022-10-16T03:24:44;6.35;;;5.75;;
21424;SDS011;10873;51.132;16.848;2022-10-16T03:27:10;6.50;;;5.78;;
21424;SDS011;10873;51.132;16.848;2022-10-16T03:29:36;6.45;;;5.85;;
21424;SDS011;10873;51.132;16.848;2022-10-16T03:32:02;6.30;;;5.70;;
21424;SDS011;10873;51.132;16.848;2022-10-16T03:34:28;7.07;;;5.97;;
21424;SDS011;10873;51.132;16.848;2022-10-16T03:36:55;6.32;;;5.72;;
21424;SDS011;10873;51.132;16.848;2022-10-16T03:39:21;7.15;;;6.45;;
21424;SDS011;10873;51.132;16.848;2022-10-16T03:41:48;6.80;;;6.10;;
21424;SDS011;10873;51.132;16.848;2022-10-16T03:44:14;6.50;;;5.90;;
21424;SDS011;10873;51.132;16.848;2022-10-16T03:46:40;5.93;;;5.32;;
21424;SDS011;10873;51.132;16.848;2022-10-16T03:49:07;6.47;;;5.72;;
21424;SDS011;10873;51.132;16.848;2022-10-16T03:51:33;6.75;;;6.15;;
21424;SDS011;10873;51.132;16.848;2022-10-16T03:53:59;6.53;;;5.85;;
21424;SDS011;10873;51.132;16.848;2022-10-16T03:56:25;6.95;;;5.70;;
21424;SDS011;10873;51.132;16.848;2022-10-16T03:58:53;6.30;;;5.70;;
21424;SDS011;10873;51.132;16.848;2022-10-16T04:01:19;6.60;;;5.88;;
21424;SDS011;10873;51.132;16.848;2022-10-16T04:03:45;6.45;;;5.55;;
21424;SDS011;10873;51.132;16.848;2022-10-16T04:06:13;6.72;;;5.97;;
21424;SDS011;10873;51.132;16.848;2022-10-16T04:08:42;6.10;;;5.30;;
21424;SDS011;10873;51.132;16.848;2022-10-16T04:11:11;6.25;;;5.65;;
21424;SDS011;10873;51.132;16.848;2022-10-16T04:13:46;6.03;;;5.43;;
21424;SDS011;10873;51.132;16.848;2022-10-16T04:16:21;5.82;;;5.30;;
21424;SDS011;10873;51.132;16.848;2022-10-16T04:18:48;7.55;;;5.93;;
21424;SDS011;10873;51.132;16.848;2022-10-16T04:21:16;7.00;;;5.72;;
21424;SDS011;10873;51.132;16.848;2022-10-16T04:23:43;5.80;;;5.20;;
21424;SDS011;10873;51.132;16.848;2022-10-16T04:26:12;5.90;;;5.30;;
21424;SDS011;10873;51.132;16.848;2022-10-16T04:28:39;5.82;;;5.22;;
21424;SDS011;10873;51.132;16.848;2022-10-16T04:31:08;6.25;;;5.65;;
21424;SDS011;10873;51.132;16.848;2022-10-16T04:33:36;5.65;;;5.15;;
21424;SDS011;10873;51.132;16.848;2022-10-16T04:36:05;6.22;;;5.63;;
21424;SDS011;10873;51.132;16.848;2022-10-16T04:38:34;6.65;;;5.00;;
21424;SDS011;10873;51.132;16.848;2022-10-16T04:41:04;6.75;;;5.40;;
21424;SDS011;10873;51.132;16.848;2022-10-16T04:43:33;5.93;;;5.32;;
21424;SDS011;10873;51.132;16.848;2022-10-16T04:46:05;6.20;;;5.60;;
21424;SDS011;10873;51.132;16.848;2022-10-16T04:48:31;6.57;;;5.90;;
21424;SDS011;10873;51.132;16.848;2022-10-16T04:51:00;6.15;;;5.30;;
21424;SDS011;10873;51.132;16.848;2022-10-16T04:53:41;9.52;;;5.72;;
21424;SDS011;10873;51.132;16.848;2022-10-16T04:56:11;6.22;;;5.63;;
21424;SDS011;10873;51.132;16.848;2022-10-16T04:58:41;7.03;;;5.88;;
21424;SDS011;10873;51.132;16.848;2022-10-16T05:01:10;7.80;;;5.88;;
21424;SDS011;10873;51.132;16.848;2022-10-16T05:03:42;5.47;;;4.97;;
21424;SDS011;10873;51.132;16.848;2022-10-16T05:06:11;6.25;;;5.57;;
21424;SDS011;10873;51.132;16.848;2022-10-16T05:08:41;6.15;;;5.55;;
21424;SDS011;10873;51.132;16.848;2022-10-16T05:11:12;6.15;;;5.47;;
21424;SDS011;10873;51.132;16.848;2022-10-16T05:13:53;7.72;;;6.93;;
21424;SDS011;10873;51.132;16.848;2022-10-16T05:16:24;7.05;;;6.35;;
21424;SDS011;10873;51.132;16.848;2022-10-16T05:18:56;7.72;;;6.97;;
21424;SDS011;10873;51.132;16.848;2022-10-16T05:21:30;7.32;;;6.50;;
21424;SDS011;10873;51.132;16.848;2022-10-16T05:24:08;7.18;;;6.47;;
21424;SDS011;10873;51.132;16.848;2022-10-16T05:26:49;7.90;;;7.10;;
21424;SDS011;10873;51.132;16.848;2022-10-16T05:29:33;8.13;;;7.00;;
21424;SDS011;10873;51.132;16.848;2022-10-16T05:32:06;10.80;;;7.65;;
21424;SDS011;10873;51.132;16.848;2022-10-16T05:34:39;10.18;;;7.80;;
21424;SDS011;10873;51.132;16.848;2022-10-16T05:37:16;10.40;;;7.85;;
21424;SDS011;10873;51.132;16.848;2022-10-16T05:39:47;11.90;;;8.45;;
21424;SDS011;10873;51.132;16.848;2022-10-16T05:42:22;11.20;;;8.75;;
21424;SDS011;10873;51.132;16.848;2022-10-16T05:44:55;8.98;;;8.02;;
21424;SDS011;10873;51.132;16.848;2022-10-16T05:47:26;13.77;;;8.70;;
21424;SDS011;10873;51.132;16.848;2022-10-16T05:49:59;11.35;;;8.45;;
21424;SDS011;10873;51.132;16.848;2022-10-16T05:52:35;14.10;;;8.30;;
21424;SDS011;10873;51.132;16.848;2022-10-16T05:55:07;9.07;;;7.95;;
21424;SDS011;10873;51.132;16.848;2022-10-16T05:57:43;11.65;;;8.52;;
21424;SDS011;10873;51.132;16.848;2022-10-16T06:00:19;12.10;;;8.60;;
21424;SDS011;10873;51.132;16.848;2022-10-16T06:02:52;10.40;;;8.20;;
21424;SDS011;10873;51.132;16.848;2022-10-16T06:05:31;10.38;;;9.18;;
21424;SDS011;10873;51.132;16.848;2022-10-16T06:08:16;9.32;;;8.32;;
21424;SDS011;10873;51.132;16.848;2022-10-16T06:11:01;12.63;;;8.68;;
21424;SDS011;10873;51.132;16.848;2022-10-16T06:13:33;12.32;;;8.75;;
21424;SDS011;10873;51.132;16.848;2022-10-16T06:16:07;9.60;;;8.38;;
21424;SDS011;10873;51.132;16.848;2022-10-16T06:18:40;13.68;;;8.68;;
21424;SDS011;10873;51.132;16.848;2022-10-16T06:21:11;12.77;;;8.07;;
21424;SDS011;10873;51.132;16.848;2022-10-16T06:23:47;10.55;;;8.20;;
21424;SDS011;10873;51.132;16.848;2022-10-16T06:26:28;10.88;;;8.65;;
21424;SDS011;10873;51.132;16.848;2022-10-16T06:28:59;9.43;;;8.02;;
21424;SDS011;10873;51.132;16.848;2022-10-16T06:31:39;10.23;;;8.30;;
21424;SDS011;10873;51.132;16.848;2022-10-16T06:34:11;12.43;;;9.20;;
21424;SDS011;10873;51.132;16.848;2022-10-16T06:36:47;10.90;;;9.13;;
21424;SDS011;10873;51.132;16.848;2022-10-16T06:39:20;15.63;;;9.38;;
21424;SDS011;10873;51.132;16.848;2022-10-16T06:41:54;16.75;;;8.75;;
21424;SDS011;10873;51.132;16.848;2022-10-16T06:44:20;12.25;;;8.88;;
21424;SDS011;10873;51.132;16.848;2022-10-16T06:46:58;14.80;;;9.05;;
21424;SDS011;10873;51.132;16.848;2022-10-16T06:49:50;16.80;;;9.23;;
21424;SDS011;10873;51.132;16.848;2022-10-16T06:52:24;12.43;;;8.68;;
21424;SDS011;10873;51.132;16.848;2022-10-16T06:54:59;16.00;;;9.25;;
21424;SDS011;10873;51.132;16.848;2022-10-16T06:57:33;14.00;;;9.10;;
21424;SDS011;10873;51.132;16.848;2022-10-16T07:00:05;14.30;;;9.73;;
21424;SDS011;10873;51.132;16.848;2022-10-16T07:02:44;11.05;;;8.70;;
21424;SDS011;10873;51.132;16.848;2022-10-16T07:05:12;14.10;;;9.43;;
21424;SDS011;10873;51.132;16.848;2022-10-16T07:07:44;11.95;;;8.32;;
21424;SDS011;10873;51.132;16.848;2022-10-16T07:10:22;13.27;;;8.20;;
21424;SDS011;10873;51.132;16.848;2022-10-16T07:12:56;33.05;;;8.75;;
21424;SDS011;10873;51.132;16.848;2022-10-16T07:15:23;29.98;;;8.68;;
21424;SDS011;10873;51.132;16.848;2022-10-16T07:18:00;16.88;;;8.43;;
21424;SDS011;10873;51.132;16.848;2022-10-16T07:20:34;25.77;;;10.27;;
21424;SDS011;10873;51.132;16.848;2022-10-16T07:23:08;24.17;;;7.95;;
21424;SDS011;10873;51.132;16.848;2022-10-16T07:25:43;40.35;;;9.10;;
21424;SDS011;10873;51.132;16.848;2022-10-16T07:28:24;43.35;;;10.57;;
21424;SDS011;10873;51.132;16.848;2022-10-16T07:30:51;44.03;;;11.60;;
21424;SDS011;10873;51.132;16.848;2022-10-16T07:33:21;35.58;;;10.13;;
21424;SDS011;10873;51.132;16.848;2022-10-16T07:35:52;54.90;;;10.75;;
21424;SDS011;10873;51.132;16.848;2022-10-16T07:38:24;35.65;;;10.13;;
21424;SDS011;10873;51.132;16.848;2022-10-16T07:41:00;15.20;;;6.30;;
21424;SDS011;10873;51.132;16.848;2022-10-16T07:43:31;25.85;;;7.75;;
21424;SDS011;10873;51.132;16.848;2022-10-16T07:45:59;20.40;;;8.32;;
21424;SDS011;10873;51.132;16.848;2022-10-16T07:48:30;17.35;;;6.55;;
21424;SDS011;10873;51.132;16.848;2022-10-16T07:50:57;11.43;;;5.85;;
21424;SDS011;10873;51.132;16.848;2022-10-16T07:53:25;11.85;;;6.50;;
21424;SDS011;10873;51.132;16.848;2022-10-16T07:56:00;13.73;;;6.03;;
21424;SDS011;10873;51.132;16.848;2022-10-16T07:58:31;13.80;;;6.03;;
21424;SDS011;10873;51.132;16.848;2022-10-16T08:00:59;14.48;;;5.50;;
21424;SDS011;10873;51.132;16.848;2022-10-16T08:06:35;13.38;;;5.68;;
21424;SDS011;10873;51.132;16.848;2022-10-16T08:09:14;12.80;;;5.30;;
21424;SDS011;10873;51.132;16.848;2022-10-16T08:11:46;16.92;;;5.90;;
21424;SDS011;10873;51.132;16.848;2022-10-16T08:14:24;9.75;;;5.45;;
21424;SDS011;10873;51.132;16.848;2022-10-16T08:17:07;7.32;;;5.05;;
21424;SDS011;10873;51.132;16.848;2022-10-16T08:19:36;10.10;;;5.05;;
21424;SDS011;10873;51.132;16.848;2022-10-16T08:22:12;8.93;;;5.38;;
21424;SDS011;10873;51.132;16.848;2022-10-16T08:25:07;9.93;;;5.30;;
21424;SDS011;10873;51.132;16.848;2022-10-16T08:27:40;16.63;;;4.90;;
21424;SDS011;10873;51.132;16.848;2022-10-16T08:30:17;9.57;;;4.85;;
21424;SDS011;10873;51.132;16.848;2022-10-16T08:32:53;9.88;;;4.78;;
21424;SDS011;10873;51.132;16.848;2022-10-16T08:35:23;8.00;;;4.80;;
21424;SDS011;10873;51.132;16.848;2022-10-16T08:37:56;7.70;;;4.90;;
21424;SDS011;10873;51.132;16.848;2022-10-16T08:40:23;7.88;;;4.60;;
21424;SDS011;10873;51.132;16.848;2022-10-16T08:42:56;13.25;;;5.25;;
21424;SDS011;10873;51.132;16.848;2022-10-16T08:45:43;15.45;;;6.40;;
21424;SDS011;10873;51.132;16.848;2022-10-16T08:48:21;11.77;;;7.15;;
21424;SDS011;10873;51.132;16.848;2022-10-16T08:50:51;10.38;;;6.90;;
21424;SDS011;10873;51.132;16.848;2022-10-16T08:53:20;13.68;;;7.10;;
21424;SDS011;10873;51.132;16.848;2022-10-16T08:55:50;11.60;;;7.15;;
21424;SDS011;10873;51.132;16.848;2022-10-16T08:58:19;12.73;;;7.55;;
21424;SDS011;10873;51.132;16.848;2022-10-16T09:00:47;11.93;;;6.90;;
21424;SDS011;10873;51.132;16.848;2022-10-16T09:03:24;10.70;;;6.82;;
21424;SDS011;10873;51.132;16.848;2022-10-16T09:06:10;9.77;;;7.05;;
21424;SDS011;10873;51.132;16.848;2022-10-16T09:08:51;10.57;;;6.50;;
21424;SDS011;10873;51.132;16.848;2022-10-16T09:11:30;10.93;;;6.65;;
21424;SDS011;10873;51.132;16.848;2022-10-16T09:14:11;15.52;;;7.25;;
21424;SDS011;10873;51.132;16.848;2022-10-16T09:16:52;20.77;;;7.05;;
21424;SDS011;10873;51.132;16.848;2022-10-16T09:19:23;16.70;;;6.85;;
21424;SDS011;10873;51.132;16.848;2022-10-16T09:21:54;12.43;;;7.25;;
21424;SDS011;10873;51.132;16.848;2022-10-16T09:24:21;10.27;;;6.43;;
21424;SDS011;10873;51.132;16.848;2022-10-16T09:26:50;13.35;;;7.13;;
21424;SDS011;10873;51.132;16.848;2022-10-16T09:29:19;10.80;;;7.07;;
21424;SDS011;10873;51.132;16.848;2022-10-16T09:31:46;14.75;;;6.80;;
21424;SDS011;10873;51.132;16.848;2022-10-16T09:34:24;11.40;;;6.43;;
21424;SDS011;10873;51.132;16.848;2022-10-16T09:36:55;9.52;;;6.60;;
21424;SDS011;10873;51.132;16.848;2022-10-16T09:39:24;10.63;;;7.20;;
21424;SDS011;10873;51.132;16.848;2022-10-16T09:41:50;11.40;;;6.90;;
21424;SDS011;10873;51.132;16.848;2022-10-16T09:44:19;15.25;;;6.82;;
21424;SDS011;10873;51.132;16.848;2022-10-16T09:46:49;10.82;;;7.20;;
21424;SDS011;10873;51.132;16.848;2022-10-16T09:49:28;9.40;;;6.60;;
21424;SDS011;10873;51.132;16.848;2022-10-16T09:52:02;11.15;;;6.70;;
21424;SDS011;10873;51.132;16.848;2022-10-16T09:54:29;9.70;;;6.30;;
21424;SDS011;10873;51.132;16.848;2022-10-16T09:57:03;8.77;;;6.35;;
21424;SDS011;10873;51.132;16.848;2022-10-16T09:59:33;11.07;;;6.88;;
21424;SDS011;10873;51.132;16.848;2022-10-16T10:02:03;10.63;;;7.10;;
21424;SDS011;10873;51.132;16.848;2022-10-16T10:04:40;12.77;;;6.97;;
21424;SDS011;10873;51.132;16.848;2022-10-16T10:07:16;10.68;;;6.53;;
21424;SDS011;10873;51.132;16.848;2022-10-16T10:09:45;13.25;;;6.95;;
21424;SDS011;10873;51.132;16.848;2022-10-16T10:12:19;9.68;;;6.00;;
21424;SDS011;10873;51.132;16.848;2022-10-16T10:14:48;11.75;;;6.55;;
21424;SDS011;10873;51.132;16.848;2022-10-16T10:17:17;8.35;;;6.10;;
21424;SDS011;10873;51.132;16.848;2022-10-16T10:19:46;9.88;;;7.00;;
21424;SDS011;10873;51.132;16.848;2022-10-16T10:22:17;9.43;;;6.43;;
21424;SDS011;10873;51.132;16.848;2022-10-16T10:27:59;13.52;;;6.70;;
21424;SDS011;10873;51.132;16.848;2022-10-16T10:31:03;8.48;;;6.47;;
21424;SDS011;10873;51.132;16.848;2022-10-16T10:33:37;8.85;;;6.53;;
21424;SDS011;10873;51.132;16.848;2022-10-16T10:36:12;11.85;;;6.90;;
21424;SDS011;10873;51.132;16.848;2022-10-16T10:38:49;9.07;;;6.38;;
21424;SDS011;10873;51.132;16.848;2022-10-16T10:44:19;9.23;;;6.57;;
21424;SDS011;10873;51.132;16.848;2022-10-16T10:46:54;9.70;;;6.00;;
21424;SDS011;10873;51.132;16.848;2022-10-16T10:49:26;9.20;;;5.97;;
21424;SDS011;10873;51.132;16.848;2022-10-16T10:52:08;9.05;;;6.25;;
21424;SDS011;10873;51.132;16.848;2022-10-16T10:54:58;7.95;;;5.68;;
21424;SDS011;10873;51.132;16.848;2022-10-16T10:57:35;9.57;;;6.18;;
21424;SDS011;10873;51.132;16.848;2022-10-16T11:00:14;10.82;;;6.28;;
21424;SDS011;10873;51.132;16.848;2022-10-16T11:02:48;7.63;;;5.90;;
21424;SDS011;10873;51.132;16.848;2022-10-16T11:05:28;6.97;;;6.13;;
21424;SDS011;10873;51.132;16.848;2022-10-16T11:08:02;8.85;;;6.65;;
21424;SDS011;10873;51.132;16.848;2022-10-16T11:10:35;6.78;;;5.38;;
21424;SDS011;10873;51.132;16.848;2022-10-16T11:13:11;8.18;;;6.13;;
21424;SDS011;10873;51.132;16.848;2022-10-16T11:15:45;8.30;;;5.82;;
21424;SDS011;10873;51.132;16.848;2022-10-16T11:18:19;7.88;;;5.85;;
21424;SDS011;10873;51.132;16.848;2022-10-16T11:20:50;9.13;;;5.75;;
21424;SDS011;10873;51.132;16.848;2022-10-16T11:23:21;9.30;;;5.97;;
21424;SDS011;10873;51.132;16.848;2022-10-16T11:25:52;7.15;;;5.78;;
21424;SDS011;10873;51.132;16.848;2022-10-16T11:28:23;5.78;;;5.05;;
21424;SDS011;10873;51.132;16.848;2022-10-16T11:30:56;7.07;;;5.38;;
21424;SDS011;10873;51.132;16.848;2022-10-16T11:33:29;7.05;;;5.60;;
21424;SDS011;10873;51.132;16.848;2022-10-16T11:36:04;5.70;;;4.80;;
21424;SDS011;10873;51.132;16.848;2022-10-16T11:38:38;6.90;;;5.38;;
21424;SDS011;10873;51.132;16.848;2022-10-16T11:41:10;8.30;;;5.68;;
21424;SDS011;10873;51.132;16.848;2022-10-16T11:43:46;6.20;;;5.25;;
21424;SDS011;10873;51.132;16.848;2022-10-16T11:46:19;7.25;;;5.03;;
21424;SDS011;10873;51.132;16.848;2022-10-16T11:48:50;7.47;;;5.75;;
21424;SDS011;10873;51.132;16.848;2022-10-16T11:51:24;5.75;;;5.00;;
21424;SDS011;10873;51.132;16.848;2022-10-16T11:53:58;7.80;;;5.13;;
21424;SDS011;10873;51.132;16.848;2022-10-16T11:56:30;7.80;;;5.03;;
21424;SDS011;10873;51.132;16.848;2022-10-16T11:59:02;5.72;;;4.78;;
21424;SDS011;10873;51.132;16.848;2022-10-16T12:01:33;9.05;;;5.38;;
21424;SDS011;10873;51.132;16.848;2022-10-16T12:04:16;7.50;;;5.30;;
21424;SDS011;10873;51.132;16.848;2022-10-16T12:06:47;6.65;;;5.00;;
21424;SDS011;10873;51.132;16.848;2022-10-16T12:09:19;8.80;;;5.55;;
21424;SDS011;10873;51.132;16.848;2022-10-16T12:11:48;13.77;;;5.43;;
21424;SDS011;10873;51.132;16.848;2022-10-16T12:30:06;6.53;;;5.05;;
21424;SDS011;10873;51.132;16.848;2022-10-16T12:32:44;10.90;;;5.35;;
21424;SDS011;10873;51.132;16.848;2022-10-16T12:35:20;8.75;;;5.38;;
21424;SDS011;10873;51.132;16.848;2022-10-16T12:37:48;9.27;;;5.40;;
21424;SDS011;10873;51.132;16.848;2022-10-16T12:40:15;9.60;;;5.00;;
21424;SDS011;10873;51.132;16.848;2022-10-16T12:42:51;8.77;;;5.22;;
21424;SDS011;10873;51.132;16.848;2022-10-16T12:45:29;7.82;;;5.05;;
21424;SDS011;10873;51.132;16.848;2022-10-16T12:47:57;10.18;;;5.13;;
21424;SDS011;10873;51.132;16.848;2022-10-16T12:50:26;6.07;;;5.00;;
21424;SDS011;10873;51.132;16.848;2022-10-16T12:52:56;10.02;;;5.05;;
21424;SDS011;10873;51.132;16.848;2022-10-16T12:55:22;9.93;;;4.65;;
21424;SDS011;10873;51.132;16.848;2022-10-16T12:57:57;6.68;;;5.45;;
21424;SDS011;10873;51.132;16.848;2022-10-16T13:00:38;8.02;;;5.10;;
21424;SDS011;10873;51.132;16.848;2022-10-16T13:06:08;5.95;;;4.90;;
21424;SDS011;10873;51.132;16.848;2022-10-16T13:08:58;6.53;;;4.90;;
21424;SDS011;10873;51.132;16.848;2022-10-16T13:11:47;8.55;;;4.63;;
21424;SDS011;10873;51.132;16.848;2022-10-16T13:14:41;9.20;;;4.60;;
21424;SDS011;10873;51.132;16.848;2022-10-16T13:17:32;13.02;;;5.25;;
21424;SDS011;10873;51.132;16.848;2022-10-16T13:20:09;10.70;;;4.80;;
21424;SDS011;10873;51.132;16.848;2022-10-16T13:22:45;10.68;;;4.88;;
21424;SDS011;10873;51.132;16.848;2022-10-16T13:25:19;8.15;;;4.82;;
21424;SDS011;10873;51.132;16.848;2022-10-16T13:27:52;9.93;;;4.63;;
21424;SDS011;10873;51.132;16.848;2022-10-16T13:30:23;11.77;;;4.68;;
21424;SDS011;10873;51.132;16.848;2022-10-16T13:32:53;6.68;;;4.75;;
21424;SDS011;10873;51.132;16.848;2022-10-16T13:35:24;6.43;;;4.72;;
21424;SDS011;10873;51.132;16.848;2022-10-16T13:38:02;6.82;;;4.60;;
21424;SDS011;10873;51.132;16.848;2022-10-16T13:40:29;7.72;;;5.20;;
21424;SDS011;10873;51.132;16.848;2022-10-16T13:42:55;8.35;;;4.45;;
21424;SDS011;10873;51.132;16.848;2022-10-16T13:45:25;6.90;;;4.72;;
21424;SDS011;10873;51.132;16.848;2022-10-16T13:48:02;8.25;;;4.65;;
21424;SDS011;10873;51.132;16.848;2022-10-16T13:50:29;6.85;;;4.50;;
21424;SDS011;10873;51.132;16.848;2022-10-16T13:53:02;6.07;;;4.38;;
21424;SDS011;10873;51.132;16.848;2022-10-16T13:55:29;7.53;;;4.32;;
21424;SDS011;10873;51.132;16.848;2022-10-16T13:58:04;6.13;;;4.68;;
21424;SDS011;10873;51.132;16.848;2022-10-16T14:00:30;5.65;;;4.53;;
21424;SDS011;10873;51.132;16.848;2022-10-16T14:02:58;6.47;;;4.78;;
21424;SDS011;10873;51.132;16.848;2022-10-16T14:05:29;7.82;;;4.43;;
21424;SDS011;10873;51.132;16.848;2022-10-16T14:07:56;7.07;;;4.20;;
21424;SDS011;10873;51.132;16.848;2022-10-16T14:10:23;7.15;;;4.57;;
21424;SDS011;10873;51.132;16.848;2022-10-16T14:12:55;7.75;;;4.40;;
21424;SDS011;10873;51.132;16.848;2022-10-16T14:15:23;7.28;;;4.20;;
21424;SDS011;10873;51.132;16.848;2022-10-16T14:17:50;5.43;;;4.68;;
21424;SDS011;10873;51.132;16.848;2022-10-16T14:20:20;7.55;;;4.10;;
21424;SDS011;10873;51.132;16.848;2022-10-16T14:22:57;7.40;;;4.50;;
21424;SDS011;10873;51.132;16.848;2022-10-16T14:25:27;7.13;;;4.30;;
21424;SDS011;10873;51.132;16.848;2022-10-16T14:27:58;5.07;;;4.57;;
21424;SDS011;10873;51.132;16.848;2022-10-16T14:30:28;5.10;;;4.60;;
21424;SDS011;10873;51.132;16.848;2022-10-16T14:32:55;5.45;;;4.07;;
21424;SDS011;10873;51.132;16.848;2022-10-16T14:35:26;5.82;;;4.40;;
21424;SDS011;10873;51.132;16.848;2022-10-16T14:37:55;4.65;;;4.22;;
21424;SDS011;10873;51.132;16.848;2022-10-16T14:40:23;6.82;;;4.10;;
21424;SDS011;10873;51.132;16.848;2022-10-16T14:42:52;15.52;;;4.38;;
21424;SDS011;10873;51.132;16.848;2022-10-16T14:45:19;6.95;;;4.30;;
21424;SDS011;10873;51.132;16.848;2022-10-16T14:47:48;5.75;;;4.25;;
21424;SDS011;10873;51.132;16.848;2022-10-16T14:50:17;4.00;;;3.55;;
21424;SDS011;10873;51.132;16.848;2022-10-16T14:52:44;4.82;;;4.05;;
21424;SDS011;10873;51.132;16.848;2022-10-16T14:55:10;4.95;;;3.92;;
21424;SDS011;10873;51.132;16.848;2022-10-16T14:57:37;4.95;;;4.05;;
21424;SDS011;10873;51.132;16.848;2022-10-16T15:00:08;5.32;;;4.32;;
21424;SDS011;10873;51.132;16.848;2022-10-16T15:02:40;3.92;;;3.53;;
21424;SDS011;10873;51.132;16.848;2022-10-16T15:05:10;6.63;;;4.18;;
21424;SDS011;10873;51.132;16.848;2022-10-16T15:07:38;5.32;;;3.60;;
21424;SDS011;10873;51.132;16.848;2022-10-16T15:10:06;4.80;;;4.15;;
21424;SDS011;10873;51.132;16.848;2022-10-16T15:12:33;10.90;;;4.00;;
21424;SDS011;10873;51.132;16.848;2022-10-16T15:14:59;5.30;;;3.78;;
21424;SDS011;10873;51.132;16.848;2022-10-16T15:17:25;5.70;;;3.83;;
21424;SDS011;10873;51.132;16.848;2022-10-16T15:19:51;4.65;;;4.00;;
21424;SDS011;10873;51.132;16.848;2022-10-16T15:22:17;4.53;;;3.85;;
21424;SDS011;10873;51.132;16.848;2022-10-16T15:24:44;5.53;;;3.60;;